Hauptseite
METAR-TAF:

METAR-TAF

Flughäfen :

Cairns Airport

Cairns, Australien

Breite: 16-53S, Länge: 145-45E, Höhe: 3 m

Beobachtung

Neuester Wetterbericht von vor 39 Minuten, um 04:00 UTC
Wind 17 kt aus Ost/Südost
Temperatur 31°C
Luftfeuchtigkeit 59%
Luftdruck 1008 hPa
Sichtweite 10 km oder mehr

METAR: YBCS 160400Z AUTO 12017KT 9999 // NCD 31/22 Q1008 RMK RF00.0/000.0 NOSIG

Zeit: 14:39 (04:39 UTC)

Prognose

Neuester Wetterbericht von vor 5 Stunden und 14 Minuten, um 23:25 UTC
Gültige Prognose vom 16 um 00 UTC bis 16 um 24 UTC
Wind 15 kt aus Südost
Sichtweite 10 km oder mehr
Leicht bewölkt in der Höhe von 2800 ft
Ab 16 um 0800 UTC
Wind 8 kt aus Süd/Südost
Sichtweite 10 km oder mehr
Leicht bewölkt in der Höhe von 2500 ft
Aufgelockert bewölkt in der Höhe von 4000 ft

TAF: YBCS 152325Z 1600/1624 13015KT 9999 FEW028 FM160800 16008KT 9999 FEW025 SCT040

Wetterbeobachtungen und Prognosen von mehr als 4000 Flughäfen (METAR und TAF Bericht).

Die verfügbaren Stationen werden durch gelbe und rote Markierungen auf der Karte dargestellt.

Führen Sie die Maus auf sie, um den Namen der Station zu sehen.

Darauf klicken, um die Beobachtung von Wetterbeobachtungen und Prognosen zu sehen.

Um die Karte zu ändern : klicken Sie auf den grünen Tasten mit einem schwarzen Kreuz Zum Vergrößern, auf den grünen Button mit einem Gedankenstrich zu verkleinern, oder auf die grünen Pfeile für benachbarte Karten.


METAR-TAF: